Yuma, AZ

1:56 PM MST on September 18, 2014 (GMT -0700)
Yuma Marine Corps Air Station | Change Station
CLOSE
Current Station
Airport
Location: Yuma MCAS,
Elevation: 213 ft
Nearby Weather Stations
4.2 Earthquake: San Felipe, Mexico (22 hours ago)  

Elev 213 ft 32.66 °N, 114.61 °W | Updated 59 minutes ago

Partly Cloudy
Partly Cloudy
101 °F
Feels Like 102 °F
N
9
Wind Variable Wind from SW

Today
High -- | Low -- °F
--% Chance of Precip.
Yesterday
High -- | Low -- °F
Precip. -- in
6:24 AM 6:40 PM
Waning Crescent, 24% visible
Pressure 29.68 in
Visibility 10.0 miles
Clouds Scattered Clouds 7500 ft
Scattered Clouds 15000 ft
Heat Index 102 °F
Dew Point 61 °F
Humidity 27%
Rainfall 0.00 in
Snow Depth 0 in , 0 in , 1 in
UV 7 out of 12
Pollen 8.70 out of 12
Air Quality Not available.
Flu Activity Not available.
METAR KNYL 181957Z 23008KT 10SM SCT075 SCT150 38/16 A2968 RMK AO2 SLP048 T03830161

More Conditions Fewer Conditions

Pressure 29.68 in
Visibility 10.0 miles
Clouds Scattered Clouds 7500 ft
Scattered Clouds 15000 ft
Heat Index 102 °F
Dew Point 61 °F
Humidity 27%
Rainfall 0.00 in
Snow Depth 0 in , 0 in , 1 in
UV 7 out of 12
Pollen 8.70 out of 12
Air Quality Not available.
Flu Activity Not available.
METAR KNYL 181957Z 23008KT 10SM SCT075 SCT150 38/16 A2968 RMK AO2 SLP048 T03830161

More Conditions Fewer Conditions

10-Day Weather Forecast

Almanac

Astronomy

Sep. 18, 2014 Rise Set
Actual Time 6:24 AM MST 6:40 PM MST
Civil Twilight 5:59 AM MST 7:05 PM MST
Nautical Twilight 5:30 AM MST 7:33 PM MST
Astronomical Twilight 5:01 AM MST 8:03 PM MST
Moon 1:32 AM MST 3:22 PM MST
Length of Visible Light 13h 05m
Length of Day
12h 16m
Tomorrow will be 1m 59s shorter.
Waning Crescent, 24% of the Moon is Illuminated
Today
Waning Crescent
Sep 24
New
Oct 1
First Quarter
Oct 8
Full
Oct 15
Last Quarter

Today's Extremes

State Highs State Lows

Community

WunderPhotos

Upload Photos

1,754,430 photos uploaded!

WunderBlogs® & News

By Dr. Jeff Masters
Director of Meteorology, Weather Underground
By Kari Strenfel
Meteorologist, Weather Underground
By Christopher C. Burt
Weather Historian, Weather Underground
September 18, 2014
September 18, 2014
September 18, 2014

Nearby

Snow Depth

Station Depth Elevation
Maverick Fork 0 in 9200 ft
Promontory 0 in 7930 ft
Workman Creek 1 in 6900 ft
Snowslide Canyon 0 in 9730 ft
Beaver Head 1 in 7990 ft

Earthquake Activity

City Distance Mag. Time & Date
San Felipe, Mexico 135 miles 4.2 3:13 PM MST
2014-09-17
La Quinta, California 118 miles 2.7 8:59 PM MST
2014-09-15
Minimum magnitude displayed is 2.5.

Coastal Water Temperatures

Place Temperature
No Stations Reporting

Nearby Weather Stations